sensor_id;sensor_type;location;lat;lon;timestamp;P1;durP1;ratioP1;P2;durP2;ratioP2
71253;SDS011;59019;47.638;18.966;2024-03-02T00:01:22;32.50;;;20.63;;
71253;SDS011;59019;47.638;18.966;2024-03-02T00:03:49;30.17;;;19.63;;
71253;SDS011;59019;47.638;18.966;2024-03-02T00:06:18;31.98;;;20.38;;
71253;SDS011;59019;47.638;18.966;2024-03-02T00:08:46;30.27;;;19.63;;
71253;SDS011;59019;47.638;18.966;2024-03-02T00:11:12;32.10;;;20.15;;
71253;SDS011;59019;47.638;18.966;2024-03-02T00:13:40;32.20;;;19.63;;
71253;SDS011;59019;47.638;18.966;2024-03-02T00:16:06;31.63;;;19.47;;
71253;SDS011;59019;47.638;18.966;2024-03-02T00:18:34;28.77;;;18.60;;
71253;SDS011;59019;47.638;18.966;2024-03-02T00:21:01;32.65;;;19.27;;
71253;SDS011;59019;47.638;18.966;2024-03-02T00:23:31;30.63;;;18.95;;
71253;SDS011;59019;47.638;18.966;2024-03-02T00:25:58;31.73;;;18.90;;
71253;SDS011;59019;47.638;18.966;2024-03-02T00:28:32;28.08;;;18.88;;
71253;SDS011;59019;47.638;18.966;2024-03-02T00:33:33;28.58;;;18.88;;
71253;SDS011;59019;47.638;18.966;2024-03-02T00:36:04;29.87;;;18.90;;
71253;SDS011;59019;47.638;18.966;2024-03-02T00:38:32;27.65;;;19.13;;
71253;SDS011;59019;47.638;18.966;2024-03-02T00:41:00;28.75;;;19.10;;
71253;SDS011;59019;47.638;18.966;2024-03-02T00:46:24;32.72;;;19.63;;
71253;SDS011;59019;47.638;18.966;2024-03-02T00:48:51;30.98;;;19.25;;
71253;SDS011;59019;47.638;18.966;2024-03-02T00:51:23;33.83;;;21.15;;
71253;SDS011;59019;47.638;18.966;2024-03-02T00:53:51;34.78;;;20.20;;
71253;SDS011;59019;47.638;18.966;2024-03-02T00:56:18;31.20;;;19.87;;
71253;SDS011;59019;47.638;18.966;2024-03-02T00:58:45;31.58;;;19.50;;
71253;SDS011;59019;47.638;18.966;2024-03-02T01:01:12;31.17;;;20.05;;
71253;SDS011;59019;47.638;18.966;2024-03-02T01:03:38;32.05;;;19.25;;
71253;SDS011;59019;47.638;18.966;2024-03-02T01:06:06;29.40;;;18.95;;
71253;SDS011;59019;47.638;18.966;2024-03-02T01:08:33;30.03;;;19.73;;
71253;SDS011;59019;47.638;18.966;2024-03-02T01:11:00;33.40;;;20.40;;
71253;SDS011;59019;47.638;18.966;2024-03-02T01:13:27;33.13;;;20.05;;
71253;SDS011;59019;47.638;18.966;2024-03-02T01:15:54;31.83;;;20.38;;
71253;SDS011;59019;47.638;18.966;2024-03-02T01:18:20;35.80;;;21.20;;
71253;SDS011;59019;47.638;18.966;2024-03-02T01:20:47;34.95;;;21.23;;
71253;SDS011;59019;47.638;18.966;2024-03-02T01:23:17;35.03;;;21.80;;
71253;SDS011;59019;47.638;18.966;2024-03-02T01:26:03;34.63;;;21.83;;
71253;SDS011;59019;47.638;18.966;2024-03-02T01:28:29;34.58;;;21.77;;
71253;SDS011;59019;47.638;18.966;2024-03-02T01:30:56;38.80;;;22.65;;
71253;SDS011;59019;47.638;18.966;2024-03-02T01:33:22;36.83;;;22.30;;
71253;SDS011;59019;47.638;18.966;2024-03-02T01:35:48;35.60;;;22.05;;
71253;SDS011;59019;47.638;18.966;2024-03-02T01:38:14;34.50;;;21.17;;
71253;SDS011;59019;47.638;18.966;2024-03-02T01:40:41;38.38;;;23.48;;
71253;SDS011;59019;47.638;18.966;2024-03-02T01:43:09;36.85;;;22.15;;
71253;SDS011;59019;47.638;18.966;2024-03-02T01:45:36;36.20;;;21.88;;
71253;SDS011;59019;47.638;18.966;2024-03-02T01:48:07;36.50;;;22.23;;
71253;SDS011;59019;47.638;18.966;2024-03-02T01:50:33;36.83;;;22.20;;
71253;SDS011;59019;47.638;18.966;2024-03-02T01:53:00;34.80;;;21.13;;
71253;SDS011;59019;47.638;18.966;2024-03-02T01:55:28;34.03;;;21.00;;
71253;SDS011;59019;47.638;18.966;2024-03-02T01:57:58;33.40;;;20.55;;
71253;SDS011;59019;47.638;18.966;2024-03-02T02:00:24;32.63;;;20.60;;
71253;SDS011;59019;47.638;18.966;2024-03-02T02:02:51;32.60;;;19.70;;
71253;SDS011;59019;47.638;18.966;2024-03-02T02:05:18;31.38;;;19.60;;
71253;SDS011;59019;47.638;18.966;2024-03-02T02:07:44;31.88;;;19.35;;
71253;SDS011;59019;47.638;18.966;2024-03-02T02:10:11;30.83;;;19.47;;
71253;SDS011;59019;47.638;18.966;2024-03-02T02:12:38;30.83;;;18.88;;
71253;SDS011;59019;47.638;18.966;2024-03-02T02:15:14;29.75;;;18.17;;
71253;SDS011;59019;47.638;18.966;2024-03-02T02:17:54;29.20;;;18.30;;
71253;SDS011;59019;47.638;18.966;2024-03-02T02:20:40;28.60;;;17.88;;
71253;SDS011;59019;47.638;18.966;2024-03-02T02:23:06;27.38;;;17.95;;
71253;SDS011;59019;47.638;18.966;2024-03-02T02:25:35;26.85;;;17.92;;
71253;SDS011;59019;47.638;18.966;2024-03-02T02:28:01;29.30;;;17.80;;
71253;SDS011;59019;47.638;18.966;2024-03-02T02:30:29;28.98;;;18.58;;
71253;SDS011;59019;47.638;18.966;2024-03-02T02:32:58;28.13;;;18.70;;
71253;SDS011;59019;47.638;18.966;2024-03-02T02:35:28;30.23;;;18.67;;
71253;SDS011;59019;47.638;18.966;2024-03-02T02:37:57;27.40;;;18.33;;
71253;SDS011;59019;47.638;18.966;2024-03-02T02:40:24;31.75;;;19.08;;
71253;SDS011;59019;47.638;18.966;2024-03-02T02:42:51;30.60;;;19.70;;
71253;SDS011;59019;47.638;18.966;2024-03-02T02:45:17;31.40;;;19.40;;
71253;SDS011;59019;47.638;18.966;2024-03-02T02:47:43;32.17;;;19.77;;
71253;SDS011;59019;47.638;18.966;2024-03-02T02:50:10;34.03;;;20.67;;
71253;SDS011;59019;47.638;18.966;2024-03-02T02:52:37;32.50;;;19.95;;
71253;SDS011;59019;47.638;18.966;2024-03-02T02:55:06;30.73;;;19.33;;
71253;SDS011;59019;47.638;18.966;2024-03-02T02:57:33;31.98;;;20.45;;
71253;SDS011;59019;47.638;18.966;2024-03-02T03:00:07;31.73;;;20.17;;
71253;SDS011;59019;47.638;18.966;2024-03-02T03:02:41;35.03;;;21.00;;
71253;SDS011;59019;47.638;18.966;2024-03-02T03:05:11;37.07;;;22.63;;
71253;SDS011;59019;47.638;18.966;2024-03-02T03:07:41;36.85;;;21.38;;
71253;SDS011;59019;47.638;18.966;2024-03-02T03:10:08;35.10;;;20.47;;
71253;SDS011;59019;47.638;18.966;2024-03-02T03:12:34;32.80;;;20.33;;
71253;SDS011;59019;47.638;18.966;2024-03-02T03:15:01;33.70;;;20.20;;
71253;SDS011;59019;47.638;18.966;2024-03-02T03:17:29;30.10;;;19.92;;
71253;SDS011;59019;47.638;18.966;2024-03-02T03:19:56;32.63;;;19.67;;
71253;SDS011;59019;47.638;18.966;2024-03-02T03:22:23;29.35;;;18.50;;
71253;SDS011;59019;47.638;18.966;2024-03-02T03:24:49;29.40;;;18.60;;
71253;SDS011;59019;47.638;18.966;2024-03-02T03:27:15;31.57;;;18.63;;
71253;SDS011;59019;47.638;18.966;2024-03-02T03:29:41;31.30;;;18.38;;
71253;SDS011;59019;47.638;18.966;2024-03-02T03:32:08;30.02;;;18.15;;
71253;SDS011;59019;47.638;18.966;2024-03-02T03:34:34;28.10;;;17.73;;
71253;SDS011;59019;47.638;18.966;2024-03-02T03:37:00;28.92;;;17.45;;
71253;SDS011;59019;47.638;18.966;2024-03-02T03:39:28;28.13;;;17.88;;
71253;SDS011;59019;47.638;18.966;2024-03-02T03:41:54;28.10;;;17.83;;
71253;SDS011;59019;47.638;18.966;2024-03-02T03:44:23;29.67;;;17.30;;
71253;SDS011;59019;47.638;18.966;2024-03-02T03:46:49;28.92;;;17.65;;
71253;SDS011;59019;47.638;18.966;2024-03-02T03:49:15;27.98;;;17.55;;
71253;SDS011;59019;47.638;18.966;2024-03-02T03:51:42;28.63;;;17.90;;
71253;SDS011;59019;47.638;18.966;2024-03-02T03:54:08;27.23;;;17.42;;
71253;SDS011;59019;47.638;18.966;2024-03-02T03:56:36;29.70;;;18.00;;
71253;SDS011;59019;47.638;18.966;2024-03-02T03:59:03;27.57;;;18.10;;
71253;SDS011;59019;47.638;18.966;2024-03-02T04:01:30;29.10;;;17.88;;
71253;SDS011;59019;47.638;18.966;2024-03-02T04:03:59;32.13;;;18.13;;
71253;SDS011;59019;47.638;18.966;2024-03-02T04:06:27;30.23;;;17.85;;
71253;SDS011;59019;47.638;18.966;2024-03-02T04:08:53;27.03;;;17.30;;
71253;SDS011;59019;47.638;18.966;2024-03-02T04:11:19;29.23;;;18.38;;
71253;SDS011;59019;47.638;18.966;2024-03-02T04:13:45;28.67;;;18.23;;
71253;SDS011;59019;47.638;18.966;2024-03-02T04:16:12;27.05;;;17.33;;
71253;SDS011;59019;47.638;18.966;2024-03-02T04:18:38;28.97;;;18.10;;
71253;SDS011;59019;47.638;18.966;2024-03-02T04:21:05;30.80;;;19.73;;
71253;SDS011;59019;47.638;18.966;2024-03-02T04:23:35;30.47;;;19.37;;
71253;SDS011;59019;47.638;18.966;2024-03-02T04:26:01;30.80;;;18.80;;
71253;SDS011;59019;47.638;18.966;2024-03-02T04:28:27;29.15;;;18.17;;
71253;SDS011;59019;47.638;18.966;2024-03-02T04:30:54;28.25;;;17.83;;
71253;SDS011;59019;47.638;18.966;2024-03-02T04:33:20;29.80;;;17.88;;
71253;SDS011;59019;47.638;18.966;2024-03-02T04:35:47;28.47;;;18.27;;
71253;SDS011;59019;47.638;18.966;2024-03-02T04:38:13;30.10;;;18.33;;
71253;SDS011;59019;47.638;18.966;2024-03-02T04:40:39;30.85;;;18.88;;
71253;SDS011;59019;47.638;18.966;2024-03-02T04:43:06;28.40;;;18.45;;
71253;SDS011;59019;47.638;18.966;2024-03-02T04:45:34;27.90;;;18.52;;
71253;SDS011;59019;47.638;18.966;2024-03-02T04:48:01;27.85;;;18.10;;
71253;SDS011;59019;47.638;18.966;2024-03-02T04:50:28;28.48;;;17.88;;
71253;SDS011;59019;47.638;18.966;2024-03-02T04:52:54;28.48;;;18.38;;
71253;SDS011;59019;47.638;18.966;2024-03-02T04:55:21;32.72;;;19.33;;
71253;SDS011;59019;47.638;18.966;2024-03-02T04:58:10;29.30;;;19.27;;
71253;SDS011;59019;47.638;18.966;2024-03-02T05:00:35;29.80;;;18.60;;
71253;SDS011;59019;47.638;18.966;2024-03-02T05:03:02;33.85;;;20.80;;
71253;SDS011;59019;47.638;18.966;2024-03-02T05:05:29;30.60;;;19.33;;
71253;SDS011;59019;47.638;18.966;2024-03-02T05:07:59;32.17;;;20.42;;
71253;SDS011;59019;47.638;18.966;2024-03-02T05:10:26;35.23;;;22.03;;
71253;SDS011;59019;47.638;18.966;2024-03-02T05:12:52;35.47;;;22.10;;
71253;SDS011;59019;47.638;18.966;2024-03-02T05:15:25;36.38;;;23.25;;
71253;SDS011;59019;47.638;18.966;2024-03-02T05:17:51;37.17;;;23.47;;
71253;SDS011;59019;47.638;18.966;2024-03-02T05:20:17;35.08;;;21.83;;
71253;SDS011;59019;47.638;18.966;2024-03-02T05:22:43;33.45;;;21.00;;
71253;SDS011;59019;47.638;18.966;2024-03-02T05:25:10;32.15;;;20.13;;
71253;SDS011;59019;47.638;18.966;2024-03-02T05:27:36;30.83;;;20.02;;
71253;SDS011;59019;47.638;18.966;2024-03-02T05:30:02;31.60;;;20.23;;
71253;SDS011;59019;47.638;18.966;2024-03-02T05:32:31;31.27;;;20.43;;
71253;SDS011;59019;47.638;18.966;2024-03-02T05:34:59;32.47;;;20.87;;
71253;SDS011;59019;47.638;18.966;2024-03-02T05:37:25;35.63;;;22.13;;
71253;SDS011;59019;47.638;18.966;2024-03-02T05:39:51;33.83;;;21.67;;
71253;SDS011;59019;47.638;18.966;2024-03-02T05:42:17;31.67;;;21.02;;
71253;SDS011;59019;47.638;18.966;2024-03-02T05:44:44;33.65;;;20.90;;
71253;SDS011;59019;47.638;18.966;2024-03-02T05:47:10;32.65;;;21.13;;
71253;SDS011;59019;47.638;18.966;2024-03-02T05:49:37;31.02;;;20.42;;
71253;SDS011;59019;47.638;18.966;2024-03-02T05:52:04;32.13;;;20.23;;
71253;SDS011;59019;47.638;18.966;2024-03-02T05:54:34;35.90;;;22.70;;
71253;SDS011;59019;47.638;18.966;2024-03-02T05:57:01;38.13;;;24.20;;
71253;SDS011;59019;47.638;18.966;2024-03-02T05:59:42;39.97;;;25.17;;
71253;SDS011;59019;47.638;18.966;2024-03-02T06:02:11;37.90;;;25.05;;
71253;SDS011;59019;47.638;18.966;2024-03-02T06:04:38;37.47;;;23.37;;
71253;SDS011;59019;47.638;18.966;2024-03-02T06:07:04;36.47;;;23.00;;
71253;SDS011;59019;47.638;18.966;2024-03-02T06:09:30;36.78;;;22.88;;
71253;SDS011;59019;47.638;18.966;2024-03-02T06:11:56;39.70;;;25.85;;
71253;SDS011;59019;47.638;18.966;2024-03-02T06:14:23;39.45;;;25.88;;
71253;SDS011;59019;47.638;18.966;2024-03-02T06:16:49;34.88;;;22.25;;
71253;SDS011;59019;47.638;18.966;2024-03-02T06:19:16;35.85;;;22.13;;
71253;SDS011;59019;47.638;18.966;2024-03-02T06:21:43;36.90;;;22.42;;
71253;SDS011;59019;47.638;18.966;2024-03-02T06:24:09;37.60;;;21.95;;
71253;SDS011;59019;47.638;18.966;2024-03-02T06:26:36;38.63;;;22.15;;
71253;SDS011;59019;47.638;18.966;2024-03-02T06:29:02;36.88;;;22.10;;
71253;SDS011;59019;47.638;18.966;2024-03-02T06:31:29;39.83;;;24.23;;
71253;SDS011;59019;47.638;18.966;2024-03-02T06:33:55;39.90;;;24.27;;
71253;SDS011;59019;47.638;18.966;2024-03-02T06:36:22;40.10;;;23.15;;
71253;SDS011;59019;47.638;18.966;2024-03-02T06:38:48;38.53;;;23.13;;
71253;SDS011;59019;47.638;18.966;2024-03-02T06:41:16;35.47;;;23.23;;
71253;SDS011;59019;47.638;18.966;2024-03-02T06:43:42;39.47;;;24.23;;
71253;SDS011;59019;47.638;18.966;2024-03-02T06:46:09;38.38;;;22.90;;
71253;SDS011;59019;47.638;18.966;2024-03-02T06:48:39;37.65;;;22.83;;
71253;SDS011;59019;47.638;18.966;2024-03-02T06:51:06;41.58;;;24.08;;
71253;SDS011;59019;47.638;18.966;2024-03-02T06:53:32;39.28;;;23.42;;
71253;SDS011;59019;47.638;18.966;2024-03-02T06:55:59;37.40;;;22.85;;
71253;SDS011;59019;47.638;18.966;2024-03-02T06:58:25;41.08;;;24.65;;
71253;SDS011;59019;47.638;18.966;2024-03-02T07:00:51;42.88;;;26.55;;
71253;SDS011;59019;47.638;18.966;2024-03-02T07:03:18;44.60;;;27.85;;
71253;SDS011;59019;47.638;18.966;2024-03-02T07:05:44;42.53;;;26.17;;
71253;SDS011;59019;47.638;18.966;2024-03-02T07:08:11;44.50;;;26.83;;
71253;SDS011;59019;47.638;18.966;2024-03-02T07:10:37;41.67;;;25.15;;
71253;SDS011;59019;47.638;18.966;2024-03-02T07:13:04;39.30;;;24.03;;
71253;SDS011;59019;47.638;18.966;2024-03-02T07:15:30;41.17;;;24.70;;
71253;SDS011;59019;47.638;18.966;2024-03-02T07:18:17;38.38;;;23.25;;
71253;SDS011;59019;47.638;18.966;2024-03-02T07:20:43;40.88;;;24.23;;
71253;SDS011;59019;47.638;18.966;2024-03-02T07:23:10;38.47;;;23.17;;
71253;SDS011;59019;47.638;18.966;2024-03-02T07:25:36;38.27;;;22.73;;
71253;SDS011;59019;47.638;18.966;2024-03-02T07:28:02;38.22;;;22.38;;
71253;SDS011;59019;47.638;18.966;2024-03-02T07:30:30;65.55;;;24.27;;
71253;SDS011;59019;47.638;18.966;2024-03-02T07:32:56;41.97;;;23.30;;
71253;SDS011;59019;47.638;18.966;2024-03-02T07:35:24;50.50;;;23.33;;
71253;SDS011;59019;47.638;18.966;2024-03-02T07:37:53;78.47;;;25.63;;
71253;SDS011;59019;47.638;18.966;2024-03-02T07:40:20;46.45;;;23.92;;
71253;SDS011;59019;47.638;18.966;2024-03-02T07:42:47;59.83;;;24.33;;
71253;SDS011;59019;47.638;18.966;2024-03-02T07:45:13;43.10;;;22.87;;
71253;SDS011;59019;47.638;18.966;2024-03-02T07:47:40;39.08;;;23.27;;
71253;SDS011;59019;47.638;18.966;2024-03-02T07:50:06;46.30;;;25.52;;
71253;SDS011;59019;47.638;18.966;2024-03-02T07:52:34;48.63;;;26.65;;
71253;SDS011;59019;47.638;18.966;2024-03-02T07:55:00;53.75;;;25.83;;
71253;SDS011;59019;47.638;18.966;2024-03-02T07:57:27;47.47;;;25.33;;
71253;SDS011;59019;47.638;18.966;2024-03-02T07:59:54;39.90;;;24.33;;
71253;SDS011;59019;47.638;18.966;2024-03-02T08:02:20;40.30;;;24.67;;
71253;SDS011;59019;47.638;18.966;2024-03-02T08:04:47;39.03;;;24.95;;
71253;SDS011;59019;47.638;18.966;2024-03-02T08:07:13;37.13;;;22.60;;
71253;SDS011;59019;47.638;18.966;2024-03-02T08:09:40;38.72;;;22.75;;
71253;SDS011;59019;47.638;18.966;2024-03-02T08:12:06;37.53;;;22.92;;
71253;SDS011;59019;47.638;18.966;2024-03-02T08:14:34;37.00;;;22.52;;
71253;SDS011;59019;47.638;18.966;2024-03-02T08:17:00;36.08;;;22.90;;
71253;SDS011;59019;47.638;18.966;2024-03-02T08:19:27;40.05;;;23.85;;
71253;SDS011;59019;47.638;18.966;2024-03-02T08:21:53;38.22;;;22.95;;
71253;SDS011;59019;47.638;18.966;2024-03-02T08:24:19;36.88;;;22.33;;
71253;SDS011;59019;47.638;18.966;2024-03-02T08:26:46;35.92;;;22.52;;
71253;SDS011;59019;47.638;18.966;2024-03-02T08:29:12;37.78;;;22.67;;
71253;SDS011;59019;47.638;18.966;2024-03-02T08:31:38;35.40;;;22.35;;
71253;SDS011;59019;47.638;18.966;2024-03-02T08:34:05;33.50;;;21.52;;
71253;SDS011;59019;47.638;18.966;2024-03-02T08:36:31;35.95;;;22.35;;
71253;SDS011;59019;47.638;18.966;2024-03-02T08:38:58;36.90;;;22.83;;
71253;SDS011;59019;47.638;18.966;2024-03-02T08:41:24;34.90;;;22.40;;
71253;SDS011;59019;47.638;18.966;2024-03-02T08:43:50;36.22;;;21.92;;
71253;SDS011;59019;47.638;18.966;2024-03-02T08:46:17;39.97;;;22.77;;
71253;SDS011;59019;47.638;18.966;2024-03-02T08:48:43;38.30;;;25.05;;
71253;SDS011;59019;47.638;18.966;2024-03-02T08:51:10;39.30;;;24.92;;
71253;SDS011;59019;47.638;18.966;2024-03-02T08:53:36;43.22;;;25.42;;
71253;SDS011;59019;47.638;18.966;2024-03-02T08:56:03;48.75;;;25.48;;
71253;SDS011;59019;47.638;18.966;2024-03-02T08:58:31;41.80;;;24.80;;
71253;SDS011;59019;47.638;18.966;2024-03-02T09:00:57;42.03;;;26.20;;
71253;SDS011;59019;47.638;18.966;2024-03-02T09:03:24;34.80;;;21.52;;
71253;SDS011;59019;47.638;18.966;2024-03-02T09:05:50;38.67;;;22.02;;
71253;SDS011;59019;47.638;18.966;2024-03-02T09:08:16;39.38;;;22.10;;
71253;SDS011;59019;47.638;18.966;2024-03-02T09:10:43;33.88;;;21.15;;
71253;SDS011;59019;47.638;18.966;2024-03-02T09:13:09;34.93;;;21.20;;
71253;SDS011;59019;47.638;18.966;2024-03-02T09:15:36;32.13;;;21.33;;
71253;SDS011;59019;47.638;18.966;2024-03-02T09:18:05;34.50;;;21.17;;
71253;SDS011;59019;47.638;18.966;2024-03-02T09:20:32;33.80;;;21.83;;
71253;SDS011;59019;47.638;18.966;2024-03-02T09:22:58;36.28;;;23.10;;
71253;SDS011;59019;47.638;18.966;2024-03-02T09:25:24;32.25;;;21.08;;
71253;SDS011;59019;47.638;18.966;2024-03-02T09:27:51;31.20;;;20.60;;
71253;SDS011;59019;47.638;18.966;2024-03-02T09:30:18;33.17;;;20.90;;
71253;SDS011;59019;47.638;18.966;2024-03-02T09:32:44;32.63;;;20.58;;
71253;SDS011;59019;47.638;18.966;2024-03-02T09:35:10;34.13;;;20.83;;
71253;SDS011;59019;47.638;18.966;2024-03-02T09:37:37;30.70;;;20.20;;
71253;SDS011;59019;47.638;18.966;2024-03-02T09:40:04;30.63;;;20.00;;
71253;SDS011;59019;47.638;18.966;2024-03-02T09:42:32;28.27;;;18.67;;
71253;SDS011;59019;47.638;18.966;2024-03-02T09:44:58;28.23;;;18.98;;
71253;SDS011;59019;47.638;18.966;2024-03-02T09:47:25;28.42;;;17.70;;
71253;SDS011;59019;47.638;18.966;2024-03-02T09:49:52;28.87;;;19.30;;
71253;SDS011;59019;47.638;18.966;2024-03-02T09:52:19;31.13;;;20.00;;
71253;SDS011;59019;47.638;18.966;2024-03-02T09:54:47;29.93;;;20.63;;
71253;SDS011;59019;47.638;18.966;2024-03-02T09:57:13;28.00;;;18.13;;
71253;SDS011;59019;47.638;18.966;2024-03-02T09:59:44;28.57;;;19.50;;
71253;SDS011;59019;47.638;18.966;2024-03-02T10:02:11;28.70;;;19.00;;
71253;SDS011;59019;47.638;18.966;2024-03-02T10:04:36;28.08;;;17.60;;
71253;SDS011;59019;47.638;18.966;2024-03-02T10:09:36;27.38;;;17.60;;
71253;SDS011;59019;47.638;18.966;2024-03-02T10:12:06;26.15;;;17.25;;
71253;SDS011;59019;47.638;18.966;2024-03-02T10:14:33;26.67;;;17.83;;
71253;SDS011;59019;47.638;18.966;2024-03-02T10:17:04;26.52;;;17.58;;
71253;SDS011;59019;47.638;18.966;2024-03-02T10:19:32;26.27;;;16.97;;
71253;SDS011;59019;47.638;18.966;2024-03-02T10:22:00;27.00;;;17.70;;
71253;SDS011;59019;47.638;18.966;2024-03-02T10:24:28;26.77;;;17.52;;
71253;SDS011;59019;47.638;18.966;2024-03-02T10:27:06;23.25;;;15.88;;
71253;SDS011;59019;47.638;18.966;2024-03-02T10:29:37;23.95;;;15.77;;
71253;SDS011;59019;47.638;18.966;2024-03-02T10:32:05;23.20;;;15.50;;
71253;SDS011;59019;47.638;18.966;2024-03-02T10:34:32;23.30;;;15.07;;
71253;SDS011;59019;47.638;18.966;2024-03-02T10:36:58;20.85;;;13.80;;
71253;SDS011;59019;47.638;18.966;2024-03-02T10:39:24;21.20;;;14.38;;
71253;SDS011;59019;47.638;18.966;2024-03-02T10:41:51;23.52;;;15.55;;
71253;SDS011;59019;47.638;18.966;2024-03-02T10:44:18;21.70;;;14.52;;
71253;SDS011;59019;47.638;18.966;2024-03-02T10:46:45;20.75;;;14.15;;
71253;SDS011;59019;47.638;18.966;2024-03-02T10:49:15;20.10;;;14.38;;
71253;SDS011;59019;47.638;18.966;2024-03-02T10:51:43;21.77;;;14.98;;
71253;SDS011;59019;47.638;18.966;2024-03-02T10:54:09;20.85;;;13.93;;
71253;SDS011;59019;47.638;18.966;2024-03-02T10:56:42;22.85;;;16.10;;
71253;SDS011;59019;47.638;18.966;2024-03-02T10:59:16;22.70;;;15.80;;
71253;SDS011;59019;47.638;18.966;2024-03-02T11:01:53;20.33;;;14.30;;
71253;SDS011;59019;47.638;18.966;2024-03-02T11:04:27;17.70;;;11.97;;
71253;SDS011;59019;47.638;18.966;2024-03-02T11:06:59;20.23;;;13.68;;
71253;SDS011;59019;47.638;18.966;2024-03-02T11:09:33;18.83;;;12.60;;
71253;SDS011;59019;47.638;18.966;2024-03-02T11:14:45;17.30;;;11.27;;
71253;SDS011;59019;47.638;18.966;2024-03-02T11:17:11;16.15;;;11.10;;
71253;SDS011;59019;47.638;18.966;2024-03-02T11:19:41;16.48;;;11.70;;
71253;SDS011;59019;47.638;18.966;2024-03-02T11:22:08;17.35;;;11.45;;
71253;SDS011;59019;47.638;18.966;2024-03-02T11:24:35;15.07;;;10.65;;
71253;SDS011;59019;47.638;18.966;2024-03-02T11:27:03;15.90;;;10.82;;
71253;SDS011;59019;47.638;18.966;2024-03-02T11:32:04;13.88;;;9.80;;
71253;SDS011;59019;47.638;18.966;2024-03-02T11:34:35;13.23;;;9.45;;
71253;SDS011;59019;47.638;18.966;2024-03-02T11:37:18;15.00;;;10.68;;
71253;SDS011;59019;47.638;18.966;2024-03-02T11:39:49;14.57;;;10.20;;
71253;SDS011;59019;47.638;18.966;2024-03-02T11:42:16;14.63;;;10.70;;
71253;SDS011;59019;47.638;18.966;2024-03-02T11:44:44;15.25;;;11.02;;
71253;SDS011;59019;47.638;18.966;2024-03-02T11:47:12;16.00;;;11.50;;
71253;SDS011;59019;47.638;18.966;2024-03-02T11:49:49;16.13;;;11.25;;
71253;SDS011;59019;47.638;18.966;2024-03-02T11:52:25;14.90;;;10.82;;
71253;SDS011;59019;47.638;18.966;2024-03-02T11:54:55;15.23;;;10.60;;
71253;SDS011;59019;47.638;18.966;2024-03-02T11:57:27;16.40;;;10.73;;
71253;SDS011;59019;47.638;18.966;2024-03-02T11:59:57;14.25;;;10.25;;
71253;SDS011;59019;47.638;18.966;2024-03-02T12:02:24;14.57;;;10.33;;
71253;SDS011;59019;47.638;18.966;2024-03-02T12:04:51;17.67;;;11.98;;
71253;SDS011;59019;47.638;18.966;2024-03-02T12:07:22;17.07;;;12.10;;
71253;SDS011;59019;47.638;18.966;2024-03-02T12:10:00;17.30;;;12.27;;
71253;SDS011;59019;47.638;18.966;2024-03-02T12:12:27;16.00;;;11.68;;
71253;SDS011;59019;47.638;18.966;2024-03-02T12:14:53;15.00;;;10.82;;
71253;SDS011;59019;47.638;18.966;2024-03-02T12:17:21;13.93;;;9.90;;
71253;SDS011;59019;47.638;18.966;2024-03-02T12:19:48;14.27;;;9.93;;
71253;SDS011;59019;47.638;18.966;2024-03-02T12:22:14;14.37;;;9.90;;
71253;SDS011;59019;47.638;18.966;2024-03-02T12:24:41;13.48;;;9.85;;
71253;SDS011;59019;47.638;18.966;2024-03-02T12:27:10;14.43;;;10.30;;
71253;SDS011;59019;47.638;18.966;2024-03-02T12:29:38;14.57;;;10.00;;
71253;SDS011;59019;47.638;18.966;2024-03-02T12:32:04;13.82;;;9.85;;
71253;SDS011;59019;47.638;18.966;2024-03-02T12:34:32;13.30;;;9.13;;
71253;SDS011;59019;47.638;18.966;2024-03-02T12:36:58;13.23;;;9.30;;
71253;SDS011;59019;47.638;18.966;2024-03-02T12:39:24;14.10;;;9.90;;
71253;SDS011;59019;47.638;18.966;2024-03-02T12:41:50;14.27;;;9.88;;
71253;SDS011;59019;47.638;18.966;2024-03-02T12:44:19;14.02;;;10.05;;
71253;SDS011;59019;47.638;18.966;2024-03-02T12:46:46;14.90;;;10.25;;
71253;SDS011;59019;47.638;18.966;2024-03-02T12:49:13;13.50;;;9.77;;
71253;SDS011;59019;47.638;18.966;2024-03-02T12:51:43;15.25;;;10.30;;
71253;SDS011;59019;47.638;18.966;2024-03-02T12:54:12;15.97;;;10.70;;
71253;SDS011;59019;47.638;18.966;2024-03-02T12:56:40;16.08;;;10.73;;
71253;SDS011;59019;47.638;18.966;2024-03-02T12:59:18;14.70;;;10.57;;
71253;SDS011;59019;47.638;18.966;2024-03-02T13:01:50;16.53;;;11.13;;
71253;SDS011;59019;47.638;18.966;2024-03-02T13:04:21;15.60;;;10.77;;
71253;SDS011;59019;47.638;18.966;2024-03-02T13:07:12;15.93;;;11.05;;
71253;SDS011;59019;47.638;18.966;2024-03-02T13:09:55;15.50;;;10.90;;
71253;SDS011;59019;47.638;18.966;2024-03-02T13:12:22;14.85;;;10.73;;
71253;SDS011;59019;47.638;18.966;2024-03-02T13:14:51;15.73;;;11.23;;
71253;SDS011;59019;47.638;18.966;2024-03-02T13:17:20;16.08;;;11.35;;
71253;SDS011;59019;47.638;18.966;2024-03-02T13:20:04;17.57;;;12.57;;
71253;SDS011;59019;47.638;18.966;2024-03-02T13:22:35;15.77;;;11.43;;
71253;SDS011;59019;47.638;18.966;2024-03-02T13:25:02;19.08;;;13.27;;
71253;SDS011;59019;47.638;18.966;2024-03-02T13:27:30;17.90;;;12.23;;
71253;SDS011;59019;47.638;18.966;2024-03-02T13:29:57;17.38;;;11.95;;
71253;SDS011;59019;47.638;18.966;2024-03-02T13:32:24;20.75;;;13.68;;
71253;SDS011;59019;47.638;18.966;2024-03-02T13:34:51;18.35;;;13.02;;
71253;SDS011;59019;47.638;18.966;2024-03-02T13:37:20;17.92;;;12.65;;
71253;SDS011;59019;47.638;18.966;2024-03-02T13:39:47;18.70;;;13.27;;
71253;SDS011;59019;47.638;18.966;2024-03-02T13:42:14;15.90;;;11.63;;
71253;SDS011;59019;47.638;18.966;2024-03-02T13:44:41;16.25;;;11.63;;
71253;SDS011;59019;47.638;18.966;2024-03-02T13:47:12;16.27;;;11.68;;
71253;SDS011;59019;47.638;18.966;2024-03-02T13:49:39;17.17;;;12.43;;
71253;SDS011;59019;47.638;18.966;2024-03-02T13:52:09;16.98;;;11.70;;
71253;SDS011;59019;47.638;18.966;2024-03-02T13:54:37;17.27;;;11.50;;
71253;SDS011;59019;47.638;18.966;2024-03-02T13:57:03;18.00;;;12.30;;
71253;SDS011;59019;47.638;18.966;2024-03-02T13:59:30;17.33;;;11.95;;
71253;SDS011;59019;47.638;18.966;2024-03-02T14:01:56;18.17;;;12.27;;
71253;SDS011;59019;47.638;18.966;2024-03-02T14:04:23;17.90;;;11.63;;
71253;SDS011;59019;47.638;18.966;2024-03-02T14:06:50;16.67;;;11.13;;
71253;SDS011;59019;47.638;18.966;2024-03-02T14:09:21;15.30;;;11.23;;
71253;SDS011;59019;47.638;18.966;2024-03-02T14:11:49;17.08;;;10.98;;
71253;SDS011;59019;47.638;18.966;2024-03-02T14:14:16;17.88;;;11.10;;
71253;SDS011;59019;47.638;18.966;2024-03-02T14:16:43;16.70;;;10.85;;
71253;SDS011;59019;47.638;18.966;2024-03-02T14:19:10;16.55;;;10.50;;
71253;SDS011;59019;47.638;18.966;2024-03-02T14:21:37;16.88;;;11.52;;
71253;SDS011;59019;47.638;18.966;2024-03-02T14:24:04;18.27;;;11.18;;
71253;SDS011;59019;47.638;18.966;2024-03-02T14:26:32;19.98;;;12.85;;